Time;durP1;ratioP1;P1;durP2;ratioP2;P2;SDS_P1;SDS_P2;PMS_P1;PMS_P2;Temp;Humidity;BMP_temperature;BMP_pressure;BME280_temperature;BME280_humidity;BME280_pressure;Samples;Min_cycle;Max_cycle;Signal;HPM_P1;HPM_P2
2021/09/27 00:09:45;;;;;;;16.97;9.50;;;13.10;99.90;;;;;;20770022;28;20080;-78
2021/09/27 00:19:46;;;;;;;17.10;9.47;;;13.10;99.90;;;;;;20771591;28;20034;-78
2021/09/27 00:29:47;;;;;;;18.37;10.73;;;12.90;99.90;;;;;;20769376;28;20121;-78
2021/09/27 00:39:48;;;;;;;23.27;10.33;;;12.90;99.90;;;;;;20772392;28;20030;-78
2021/09/27 00:49:49;;;;;;;20.43;9.70;;;12.90;99.90;;;;;;20768626;28;20570;-79
2021/09/27 00:59:54;;;;;;;15.90;9.93;;;12.90;99.90;;;;;;20768277;28;20033;-77
2021/09/27 01:10:07;;;;;;;22.00;9.63;;;12.80;99.90;;;;;;20763233;28;20526;-78
2021/09/27 01:20:38;;;;;;;18.85;9.73;;;12.80;99.90;;;;;;20736975;28;20034;-78
2021/09/27 01:30:58;;;;;;;16.40;9.98;;;12.80;99.90;;;;;;20736213;28;20057;-78
2021/09/27 01:41:09;;;;;;;18.52;9.23;;;12.80;99.90;;;;;;20752966;28;20026;-77
2021/09/27 01:51:45;;;;;;;18.97;8.00;;;12.80;99.90;;;;;;20752061;28;20109;-78
2021/09/27 02:02:12;;;;;;;16.75;9.20;;;12.70;99.90;;;;;;20747860;28;20176;-78
2021/09/27 02:12:23;;;;;;;14.32;8.27;;;12.70;99.90;;;;;;20732985;28;20484;-79
2021/09/27 02:22:49;;;;;;;11.57;8.20;;;12.80;99.90;;;;;;20749569;28;20026;-78
2021/09/27 02:33:09;;;;;;;18.40;9.20;;;12.80;99.90;;;;;;20686749;28;20117;-79
2021/09/27 02:43:12;;;;;;;15.88;7.97;;;12.80;99.90;;;;;;20714221;28;20035;-77
2021/09/27 02:53:14;;;;;;;12.50;8.68;;;12.80;99.90;;;;;;20619435;28;20095;-78
2021/09/27 03:03:30;;;;;;;16.40;8.85;;;12.70;99.90;;;;;;20685094;28;20408;-79
2021/09/27 03:13:59;;;;;;;12.98;7.90;;;12.60;99.90;;;;;;20677602;28;20037;-80
2021/09/27 03:24:38;;;;;;;14.70;7.53;;;12.40;99.90;;;;;;20672125;28;20038;-79
2021/09/27 03:35:17;;;;;;;14.80;8.68;;;12.30;99.90;;;;;;20672202;28;20441;-77
2021/09/27 03:45:31;;;;;;;34.00;11.98;;;12.10;99.90;;;;;;20633343;28;20046;-80
2021/09/27 03:55:53;;;;;;;20.35;9.70;;;12.20;99.90;;;;;;20672990;28;20034;-80
2021/09/27 04:06:02;;;;;;;23.88;11.40;;;11.90;99.90;;;;;;20674215;28;20117;-81
2021/09/27 04:16:24;;;;;;;64.13;13.60;;;12.20;99.90;;;;;;20674570;28;20061;-81
2021/09/27 04:27:01;;;;;;;15.90;9.17;;;12.40;99.90;;;;;;20673043;28;20041;-79
2021/09/27 04:37:03;;;;;;;24.95;14.55;;;12.30;99.90;;;;;;20672767;28;20033;-78
2021/09/27 04:47:09;;;;;;;14.18;8.40;;;12.00;99.90;;;;;;20681061;28;20042;-80
2021/09/27 04:57:29;;;;;;;16.92;7.97;;;11.70;99.90;;;;;;20691460;28;20037;-79
2021/09/27 05:07:55;;;;;;;15.70;9.07;;;11.50;99.90;;;;;;20706261;28;20038;-80
2021/09/27 05:18:14;;;;;;;24.73;10.07;;;11.40;99.90;;;;;;20729663;28;20030;-79
2021/09/27 05:28:49;;;;;;;25.17;11.65;;;11.20;99.90;;;;;;20690813;28;20061;-79
2021/09/27 05:39:07;;;;;;;158.32;19.55;;;11.20;99.90;;;;;;20693351;28;20037;-80
2021/09/27 05:49:29;;;;;;;66.90;19.60;;;11.70;99.90;;;;;;20735877;28;20033;-80
2021/09/27 05:59:58;;;;;;;53.57;18.80;;;12.10;99.90;;;;;;20760519;28;20059;-80
2021/09/27 06:10:10;;;;;;;44.67;16.38;;;12.30;99.90;;;;;;20740126;28;20086;-80
2021/09/27 06:20:18;;;;;;;121.43;22.47;;;12.40;99.90;;;;;;20713889;28;20050;-80
2021/09/27 06:30:25;;;;;;;209.73;25.80;;;12.50;99.90;;;;;;20726143;28;20037;-80
2021/09/27 06:40:25;;;;;;;65.47;21.20;;;12.80;99.90;;;;;;20740518;28;20034;-80
2021/09/27 06:50:26;;;;;;;133.53;25.23;;;12.80;99.90;;;;;;20680200;28;20112;-78
2021/09/27 07:00:27;;;;;;;242.60;28.93;;;12.90;99.90;;;;;;20700818;28;20125;-79
2021/09/27 07:10:28;;;;;;;119.93;27.33;;;13.00;99.90;;;;;;20674924;28;20038;-79
2021/09/27 07:20:29;;;;;;;88.97;26.77;;;13.20;99.90;;;;;;20716419;28;20093;-78
2021/09/27 07:30:31;;;;;;;76.17;25.30;;;13.50;99.90;;;;;;20756445;28;20037;-79
2021/09/27 07:40:35;;;;;;;94.05;26.92;;;14.00;99.90;;;;;;20748345;28;20029;-81
2021/09/27 07:50:37;;;;;;;57.08;22.13;;;14.10;99.90;;;;;;20755182;28;20040;-81
2021/09/27 08:00:38;;;;;;;80.68;24.42;;;14.20;99.90;;;;;;20753916;28;20060;-80
2021/09/27 08:10:40;;;;;;;57.33;24.57;;;14.30;99.90;;;;;;20737330;28;20120;-80
2021/09/27 08:20:47;;;;;;;54.80;23.98;;;14.40;99.90;;;;;;20758562;28;20060;-80
2021/09/27 08:30:54;;;;;;;55.13;22.95;;;14.60;99.90;;;;;;20769580;28;20032;-80
2021/09/27 08:40:55;;;;;;;45.83;21.25;;;14.90;99.90;;;;;;20769577;28;20133;-80
2021/09/27 08:50:56;;;;;;;59.27;24.67;;;15.20;99.90;;;;;;20777319;28;20030;-80
2021/09/27 09:01:05;;;;;;;51.07;24.00;;;15.40;99.90;;;;;;20735755;28;20476;-77
2021/09/27 09:11:30;;;;;;;62.00;24.67;;;15.70;99.90;;;;;;20750085;28;20030;-77
2021/09/27 09:22:03;;;;;;;42.40;21.40;;;15.50;99.90;;;;;;20725916;28;20100;-77
2021/09/27 09:32:12;;;;;;;;;;;16.00;99.90;;;;;;20783235;28;20120;-78
2021/09/27 09:42:15;;;;;;;39.08;19.92;;;17.40;99.90;;;;;;20736201;28;20456;-78
2021/09/27 09:52:28;;;;;;;37.05;18.88;;;16.90;99.90;;;;;;20708233;28;20049;-78
2021/09/27 10:02:29;;;;;;;27.50;16.35;;;17.70;99.90;;;;;;20713005;28;20030;-78
2021/09/27 10:12:42;;;;;;;;;;;19.60;99.90;;;;;;20707370;28;20034;-83
2021/09/27 10:22:58;;;;;;;24.95;15.57;;;18.90;99.90;;;;;;20662777;28;19914;-80
2021/09/27 10:33:08;;;;;;;20.90;14.27;;;20.30;99.90;;;;;;20676419;28;20039;-81
2021/09/27 10:43:13;;;;;;;17.48;11.68;;;21.40;99.90;;;;;;20689780;28;20100;-83
2021/09/27 10:53:26;;;;;;;14.10;10.15;;;22.70;99.90;;;;;;20693890;28;20069;-79
2021/09/27 11:03:53;;;;;;;12.13;8.65;;;23.30;99.90;;;;;;20689276;28;20057;-81
2021/09/27 11:13:56;;;;;;;16.52;9.93;;;24.70;99.90;;;;;;20678727;28;20085;-82
2021/09/27 11:24:03;;;;;;;11.02;7.95;;;24.30;99.90;;;;;;20646841;28;20026;-82
2021/09/27 11:34:31;;;;;;;10.75;7.07;;;23.00;99.90;;;;;;20659842;28;20041;-81
2021/09/27 11:44:34;;;;;;;10.82;7.55;;;24.10;99.90;;;;;;20678014;28;20562;-79
2021/09/27 11:54:48;;;;;;;16.17;8.60;;;23.30;99.90;;;;;;20686965;28;20041;-79
2021/09/27 12:05:14;;;;;;;9.45;6.88;;;22.90;99.90;;;;;;20673523;28;20045;-78
2021/09/27 12:15:25;;;;;;;8.68;6.53;;;22.10;99.90;;;;;;20687792;28;20650;-79
2021/09/27 12:25:35;;;;;;;;;;;23.00;99.90;;;;;;20670538;28;20042;-79
2021/09/27 12:35:51;;;;;;;10.07;6.43;;;23.50;99.90;;;;;;20666082;28;19969;-79
2021/09/27 12:45:56;;;;;;;6.70;5.28;;;23.60;99.90;;;;;;20670007;28;20535;-78
2021/09/27 12:55:57;;;;;;;10.73;4.38;;;23.30;99.90;;;;;;20682868;28;20523;-77
2021/09/27 13:06:23;;;;;;;7.28;4.97;;;23.40;99.90;;;;;;20684471;28;20030;-79
2021/09/27 13:16:25;;;;;;;5.25;4.20;;;23.10;99.90;;;;;;20695009;28;20037;-79
2021/09/27 13:26:49;;;;;;;5.35;3.53;;;22.70;99.90;;;;;;20695103;28;20033;-78
2021/09/27 13:36:52;;;;;;;4.03;3.20;;;22.10;99.90;;;;;;20674843;28;20108;-77
2021/09/27 13:46:53;;;;;;;4.40;3.20;;;21.60;99.90;;;;;;20686507;28;20039;-78
2021/09/27 13:56:54;;;;;;;3.90;2.93;;;21.30;99.90;;;;;;20668141;28;20145;-78
2021/09/27 14:06:55;;;;;;;3.43;2.77;;;21.10;99.90;;;;;;20663932;28;20069;-79
2021/09/27 14:16:56;;;;;;;6.13;3.03;;;21.20;99.90;;;;;;20681103;28;20149;-79
2021/09/27 14:27:00;;;;;;;4.43;3.00;;;21.40;99.90;;;;;;20676694;28;20608;-77
2021/09/27 14:37:01;;;;;;;3.88;2.67;;;21.80;99.90;;;;;;20667165;28;20705;-78
2021/09/27 14:47:01;;;;;;;6.53;2.43;;;22.00;99.90;;;;;;20668110;28;20026;-78
2021/09/27 14:57:03;;;;;;;12.10;3.10;;;22.30;99.90;;;;;;20620310;28;20022;-79
2021/09/27 15:07:04;;;;;;;5.38;2.08;;;22.00;99.90;;;;;;20553652;28;20038;-78
2021/09/27 15:17:06;;;;;;;3.53;2.10;;;21.90;99.90;;;;;;20620574;28;20208;-78
2021/09/27 15:27:08;;;;;;;3.90;2.63;;;22.00;99.90;;;;;;20700464;28;20052;-78
2021/09/27 15:37:12;;;;;;;5.13;2.10;;;21.80;99.90;;;;;;20662254;28;20034;-78
2021/09/27 15:47:15;;;;;;;5.97;2.40;;;21.80;99.90;;;;;;20641576;28;20026;-78
2021/09/27 15:57:17;;;;;;;2.67;2.38;;;21.50;99.90;;;;;;20640898;28;20030;-78
2021/09/27 16:07:18;;;;;;;6.07;2.53;;;21.20;99.90;;;;;;20665029;28;20469;-78
2021/09/27 16:17:19;;;;;;;3.50;2.30;;;21.00;99.90;;;;;;20734130;28;20140;-78
2021/09/27 16:27:20;;;;;;;3.43;2.50;;;21.00;99.90;;;;;;20726785;28;20029;-79
2021/09/27 16:37:20;;;;;;;5.73;3.13;;;20.70;99.90;;;;;;20722791;28;20033;-78
2021/09/27 16:47:22;;;;;;;4.80;3.27;;;19.70;99.90;;;;;;20665527;28;20026;-77
2021/09/27 16:57:22;;;;;;;5.90;2.90;;;19.70;99.90;;;;;;20657049;28;20492;-78
2021/09/27 17:07:29;;;;;;;4.17;2.50;;;19.40;99.90;;;;;;20670250;28;20371;-80
2021/09/27 17:27:50;;;;;;;7.25;3.80;;;18.50;99.90;;;;;;20678649;28;20069;-78
2021/09/27 17:37:51;;;;;;;6.63;4.13;;;18.60;99.90;;;;;;20683334;28;20153;-79
2021/09/27 17:47:53;;;;;;;5.93;3.83;;;18.50;99.90;;;;;;20666638;28;20058;-78
2021/09/27 17:57:53;;;;;;;;;;;17.90;99.90;;;;;;20676990;28;20038;-78
2021/09/27 18:07:54;;;;;;;5.70;4.23;;;17.60;99.90;;;;;;20693563;28;19924;-78
2021/09/27 18:17:55;;;;;;;5.53;3.83;;;17.50;99.90;;;;;;20674170;28;20281;-79
2021/09/27 18:27:57;;;;;;;7.60;4.43;;;17.50;99.90;;;;;;20665884;28;20516;-78
2021/09/27 18:37:59;;;;;;;6.85;4.70;;;17.00;99.90;;;;;;20674360;28;20064;-77
2021/09/27 18:48:05;;;;;;;6.97;4.20;;;16.80;99.90;;;;;;20676018;28;20069;-77
2021/09/27 18:58:06;;;;;;;7.03;4.63;;;16.70;99.90;;;;;;20631882;28;20034;-78
2021/09/27 19:08:07;;;;;;;7.57;4.53;;;16.60;99.90;;;;;;20623056;28;20034;-78
2021/09/27 19:18:09;;;;;;;6.70;3.60;;;16.60;99.90;;;;;;20640352;28;20041;-77
2021/09/27 19:28:11;;;;;;;5.53;3.45;;;16.60;99.90;;;;;;20647058;28;20453;-78
2021/09/27 19:38:13;;;;;;;7.40;3.90;;;16.40;99.90;;;;;;20625674;28;20034;-77
2021/09/27 19:48:17;;;;;;;6.55;4.22;;;16.30;99.90;;;;;;20649284;28;20048;-78
2021/09/27 19:58:18;;;;;;;7.82;4.35;;;15.90;99.90;;;;;;20666063;28;20433;-79
2021/09/27 20:08:22;;;;;;;5.63;3.72;;;15.80;99.90;;;;;;20688281;28;20053;-78
2021/09/27 20:18:24;;;;;;;10.52;4.45;;;15.40;99.90;;;;;;20737525;28;20038;-79
2021/09/27 20:28:27;;;;;;;6.95;4.68;;;15.40;99.90;;;;;;20764616;28;20045;-78
2021/09/27 20:38:28;;;;;;;7.30;5.25;;;15.00;99.90;;;;;;20762352;28;20072;-78
2021/09/27 20:48:29;;;;;;;10.90;5.23;;;14.70;99.90;;;;;;20692710;28;20034;-79
2021/09/27 20:58:30;;;;;;;14.18;5.38;;;14.80;99.90;;;;;;20718176;28;20040;-78
2021/09/27 21:08:32;;;;;;;12.40;5.10;;;14.50;99.90;;;;;;20674941;28;20394;-79
2021/09/27 21:18:33;;;;;;;6.90;4.57;;;14.60;99.90;;;;;;20709981;28;20030;-80
2021/09/27 21:28:35;;;;;;;9.30;5.20;;;14.60;99.90;;;;;;20706016;28;20034;-79
2021/09/27 21:38:37;;;;;;;10.02;5.43;;;14.40;99.90;;;;;;20692889;28;20037;-79
2021/09/27 21:48:40;;;;;;;8.00;5.57;;;14.20;99.90;;;;;;20691859;28;20038;-79
2021/09/27 21:58:40;;;;;;;10.45;6.15;;;14.20;99.90;;;;;;20692766;28;20547;-79
2021/09/27 22:08:41;;;;;;;12.53;6.30;;;14.40;99.90;;;;;;20691269;28;20026;-80
2021/09/27 22:18:42;;;;;;;15.87;7.17;;;14.50;99.90;;;;;;20709508;28;20031;-80
2021/09/27 22:28:43;;;;;;;13.17;8.30;;;14.60;99.90;;;;;;20694499;28;20038;-79
2021/09/27 22:38:45;;;;;;;8.60;4.67;;;15.00;99.90;;;;;;20697389;28;20485;-79
2021/09/27 22:48:45;;;;;;;;;;;15.20;99.90;;;;;;20695543;28;20027;-79
2021/09/27 22:58:46;;;;;;;2.23;1.20;;;15.30;99.90;;;;;;20675156;28;19921;-79
2021/09/27 23:08:47;;;;;;;4.50;1.10;;;15.30;99.90;;;;;;20689964;28;20321;-79
2021/09/27 23:18:48;;;;;;;0.70;0.67;;;15.10;99.90;;;;;;20688030;28;20026;-79
2021/09/27 23:28:49;;;;;;;1.40;0.60;;;14.70;99.90;;;;;;20687527;28;20401;-79
2021/09/27 23:38:50;;;;;;;1.17;0.70;;;14.20;99.90;;;;;;20705082;28;20045;-79
2021/09/27 23:48:51;;;;;;;0.95;0.80;;;13.90;99.90;;;;;;20689216;28;20034;-79
2021/09/27 23:58:52;;;;;;;1.40;0.63;;;13.60;99.90;;;;;;20674199;28;20080;-79
